createdAt,value
2024-03-08T00:00:14.883Z,11.77
2024-03-08T00:02:43.948Z,10.68
2024-03-08T00:05:11.390Z,11.10
2024-03-08T00:07:39.656Z,10.70
2024-03-08T00:10:13.350Z,11.73
2024-03-08T00:12:46.589Z,11.45
2024-03-08T00:15:17.160Z,10.93
2024-03-08T00:17:46.135Z,11.55
2024-03-08T00:20:15.171Z,11.00
2024-03-08T00:22:42.976Z,10.60
2024-03-08T00:25:15.782Z,10.88
2024-03-08T00:27:42.754Z,11.65
2024-03-08T00:30:10.321Z,11.48
2024-03-08T00:32:38.173Z,11.18
2024-03-08T00:35:05.610Z,11.27
2024-03-08T00:37:36.203Z,11.75
2024-03-08T00:40:12.490Z,11.20
2024-03-08T00:43:34.005Z,11.13
2024-03-08T00:46:02.453Z,9.93
2024-03-08T00:48:29.566Z,10.65
2024-03-08T00:50:59.843Z,10.93
2024-03-08T00:53:30.078Z,10.98
2024-03-08T00:55:57.335Z,10.27
2024-03-08T00:58:39.796Z,11.13
2024-03-08T01:01:29.855Z,11.35
2024-03-08T01:04:27.234Z,10.85
2024-03-08T01:06:54.374Z,9.88
2024-03-08T01:09:23.620Z,10.38
2024-03-08T01:11:54.042Z,11.70
2024-03-08T01:14:23.613Z,10.30
2024-03-08T01:16:51.225Z,11.15
2024-03-08T01:19:18.930Z,11.32
2024-03-08T01:21:45.848Z,12.18
2024-03-08T01:24:25.165Z,10.63
2024-03-08T01:26:52.421Z,10.98
2024-03-08T01:29:22.607Z,11.68
2024-03-08T01:32:01.516Z,11.10
2024-03-08T01:34:31.616Z,10.73
2024-03-08T01:37:00.930Z,11.48
2024-03-08T01:39:30.497Z,11.20
2024-03-08T01:41:59.558Z,11.73
2024-03-08T01:44:29.761Z,11.32
2024-03-08T01:46:57.512Z,11.98
2024-03-08T01:49:28.478Z,11.63
2024-03-08T01:51:57.867Z,11.90
2024-03-08T01:54:26.140Z,11.07
2024-03-08T01:56:54.881Z,11.85
2024-03-08T01:59:28.417Z,10.52
2024-03-08T02:02:04.593Z,11.13
2024-03-08T02:04:32.032Z,11.90
2024-03-08T02:07:10.967Z,11.63
2024-03-08T02:09:38.025Z,10.68
2024-03-08T02:12:05.041Z,11.93
2024-03-08T02:14:32.448Z,12.52
2024-03-08T02:17:06.067Z,12.05
2024-03-08T02:19:34.176Z,10.98
2024-03-08T02:22:02.061Z,11.63
2024-03-08T02:24:35.221Z,11.18
2024-03-08T02:27:14.380Z,11.63
2024-03-08T02:29:44.050Z,12.07
2024-03-08T02:32:11.037Z,10.90
2024-03-08T02:34:50.859Z,10.80
2024-03-08T02:37:20.902Z,11.30
2024-03-08T02:39:51.121Z,10.98
2024-03-08T02:42:19.029Z,11.48
2024-03-08T02:45:03.694Z,11.43
2024-03-08T02:47:32.777Z,11.27
2024-03-08T02:50:09.284Z,10.27
2024-03-08T02:52:49.096Z,10.50
2024-03-08T02:55:18.437Z,11.23
2024-03-08T02:57:45.635Z,12.07
2024-03-08T03:03:30.482Z,10.98
2024-03-08T03:05:57.363Z,11.27
2024-03-08T03:08:40.127Z,11.02
2024-03-08T03:11:18.331Z,11.50
2024-03-08T03:14:05.847Z,11.43
2024-03-08T03:16:32.940Z,11.75
2024-03-08T03:19:03.051Z,10.48
2024-03-08T03:24:35.375Z,10.55
2024-03-08T03:27:02.468Z,10.77
2024-03-08T03:29:56.950Z,10.93
2024-03-08T03:32:30.261Z,10.32
2024-03-08T03:35:06.883Z,11.23
2024-03-08T03:40:53.853Z,10.70
2024-03-08T03:43:20.889Z,11.82
2024-03-08T03:45:52.122Z,12.07
2024-03-08T03:48:21.185Z,10.15
2024-03-08T03:51:23.993Z,11.60
2024-03-08T03:53:54.317Z,11.48
2024-03-08T03:56:37.336Z,11.55
2024-03-08T03:59:04.771Z,11.65
2024-03-08T04:01:39.847Z,12.05
2024-03-08T04:04:07.779Z,11.80
2024-03-08T04:06:34.882Z,11.15
2024-03-08T04:09:02.133Z,11.80
2024-03-08T04:11:49.834Z,13.13
2024-03-08T04:14:16.880Z,11.75
2024-03-08T04:16:43.655Z,11.98
2024-03-08T04:19:11.429Z,11.73
2024-03-08T04:21:38.487Z,11.05
2024-03-08T04:24:06.842Z,11.07
2024-03-08T04:26:35.198Z,11.10
2024-03-08T04:29:05.967Z,11.95
2024-03-08T04:31:32.951Z,11.38
2024-03-08T04:33:59.815Z,12.95
2024-03-08T04:36:26.593Z,11.18
2024-03-08T04:38:53.518Z,12.00
2024-03-08T04:41:21.471Z,11.70
2024-03-08T04:43:48.376Z,12.30
2024-03-08T04:46:15.258Z,11.93
2024-03-08T04:48:43.809Z,10.98
2024-03-08T04:51:13.812Z,11.82
2024-03-08T04:53:43.783Z,11.82
2024-03-08T04:56:17.384Z,12.93
2024-03-08T04:58:50.646Z,11.45
2024-03-08T05:01:17.845Z,10.52
2024-03-08T05:03:49.713Z,12.35
2024-03-08T05:06:17.351Z,10.65
2024-03-08T05:08:44.320Z,11.60
2024-03-08T05:11:11.208Z,12.75
2024-03-08T05:13:38.821Z,11.98
2024-03-08T05:16:06.297Z,11.43
2024-03-08T05:18:33.706Z,11.88
2024-03-08T05:21:00.841Z,12.25
2024-03-08T05:23:28.035Z,11.75
2024-03-08T05:25:54.760Z,11.57
2024-03-08T05:28:34.054Z,11.80
2024-03-08T05:34:11.464Z,10.35
2024-03-08T05:36:40.773Z,11.48
2024-03-08T05:39:08.490Z,11.30
2024-03-08T05:41:35.551Z,11.27
2024-03-08T05:44:02.671Z,11.98
2024-03-08T05:46:29.534Z,11.15
2024-03-08T05:48:56.481Z,11.60
2024-03-08T05:51:26.376Z,11.52
2024-03-08T05:53:54.698Z,10.88
2024-03-08T05:56:21.406Z,12.35
2024-03-08T05:58:49.100Z,11.50
2024-03-08T06:01:16.789Z,11.93
2024-03-08T06:03:46.539Z,11.88
2024-03-08T06:06:14.455Z,12.07
2024-03-08T06:08:41.678Z,10.95
2024-03-08T06:11:08.468Z,11.13
2024-03-08T06:13:42.099Z,12.02
2024-03-08T06:16:12.759Z,12.63
2024-03-08T06:18:40.834Z,11.25
2024-03-08T06:21:08.213Z,12.45
2024-03-08T06:23:34.899Z,12.57
2024-03-08T06:26:02.437Z,11.57
2024-03-08T06:28:29.100Z,13.23
2024-03-08T06:30:55.770Z,12.88
2024-03-08T06:33:22.450Z,12.23
2024-03-08T06:35:49.442Z,11.38
2024-03-08T06:38:18.170Z,11.98
2024-03-08T06:40:45.071Z,11.65
2024-03-08T06:43:15.494Z,11.80
2024-03-08T06:45:42.262Z,12.68
2024-03-08T06:48:11.090Z,12.60
2024-03-08T06:50:37.870Z,10.10
2024-03-08T06:53:04.746Z,12.13
2024-03-08T06:55:31.601Z,12.60
2024-03-08T06:57:59.011Z,12.05
2024-03-08T07:00:28.261Z,13.18
2024-03-08T07:02:55.082Z,13.38
2024-03-08T07:05:21.633Z,12.18
2024-03-08T07:07:50.401Z,13.63
2024-03-08T07:12:44.797Z,10.13
2024-03-08T07:15:15.256Z,11.68
2024-03-08T07:17:45.520Z,11.77
2024-03-08T07:20:14.562Z,11.65
2024-03-08T07:22:41.303Z,13.20
2024-03-08T07:25:10.969Z,12.55
2024-03-08T07:27:37.480Z,11.30
2024-03-08T07:32:35.787Z,12.82
2024-03-08T07:35:03.191Z,13.82
2024-03-08T07:37:29.760Z,12.18
2024-03-08T07:39:56.272Z,13.40
2024-03-08T07:42:24.059Z,14.48
2024-03-08T07:44:51.460Z,14.07
2024-03-08T07:47:21.208Z,13.63
2024-03-08T07:49:49.025Z,13.73
2024-03-08T07:52:16.741Z,13.45
2024-03-08T07:54:43.312Z,13.68
2024-03-08T07:57:10.167Z,14.50
2024-03-08T07:59:36.644Z,13.68
2024-03-08T08:02:03.198Z,13.23
2024-03-08T08:04:29.760Z,15.77
2024-03-08T08:06:56.333Z,13.70
2024-03-08T08:09:35.812Z,13.60
2024-03-08T08:12:05.375Z,13.45
2024-03-08T08:14:34.717Z,15.52
2024-03-08T08:17:04.863Z,13.20
2024-03-08T08:19:33.011Z,14.77
2024-03-08T08:21:59.562Z,16.27
2024-03-08T08:24:27.351Z,14.65
2024-03-08T08:26:53.852Z,14.70
2024-03-08T08:29:21.600Z,13.60
2024-03-08T08:31:48.339Z,16.20
2024-03-08T08:34:15.127Z,15.43
2024-03-08T08:36:41.745Z,15.45
2024-03-08T08:39:14.781Z,14.80
2024-03-08T08:41:42.698Z,16.15
2024-03-08T08:44:16.405Z,14.77
2024-03-08T08:46:43.601Z,14.60
2024-03-08T08:49:15.740Z,14.60
2024-03-08T08:51:42.373Z,15.90
2024-03-08T08:54:10.970Z,16.38
2024-03-08T08:56:38.669Z,15.23
2024-03-08T08:59:05.875Z,15.60
2024-03-08T09:01:32.712Z,15.90
2024-03-08T09:03:59.377Z,14.57
2024-03-08T09:06:26.998Z,14.52
2024-03-08T09:08:54.028Z,14.25
2024-03-08T09:11:21.489Z,16.08
2024-03-08T09:13:48.238Z,14.77
2024-03-08T09:16:14.870Z,14.70
2024-03-08T09:18:42.849Z,14.90
2024-03-08T09:21:11.011Z,14.90
2024-03-08T09:23:37.950Z,15.43
2024-03-08T09:26:08.155Z,15.02
2024-03-08T09:28:37.211Z,15.95
2024-03-08T09:31:04.001Z,15.88
2024-03-08T09:33:30.930Z,14.32
2024-03-08T09:36:02.909Z,16.45
2024-03-08T09:38:30.705Z,15.10
2024-03-08T09:40:58.271Z,16.15
2024-03-08T09:43:25.527Z,15.80
2024-03-08T09:45:52.407Z,15.68
2024-03-08T09:48:20.207Z,15.68
2024-03-08T09:50:47.555Z,16.02
2024-03-08T09:53:14.397Z,15.68
2024-03-08T09:55:43.585Z,15.82
2024-03-08T09:58:31.169Z,15.48
2024-03-08T10:01:02.986Z,15.05
2024-03-08T10:03:30.555Z,15.57
2024-03-08T10:06:01.481Z,15.75
2024-03-08T10:08:31.182Z,14.75
2024-03-08T10:11:01.379Z,14.65
2024-03-08T10:13:29.092Z,15.13
2024-03-08T10:15:56.262Z,15.95
2024-03-08T10:18:23.956Z,15.25
2024-03-08T10:21:08.437Z,16.17
2024-03-08T10:23:35.887Z,14.85
2024-03-08T10:26:16.179Z,14.68
2024-03-08T10:28:49.066Z,14.43
2024-03-08T10:31:19.180Z,14.68
2024-03-08T10:33:46.847Z,15.23
2024-03-08T10:36:15.830Z,14.55
2024-03-08T10:38:50.072Z,15.80
2024-03-08T10:41:18.216Z,14.95
2024-03-08T10:44:09.276Z,14.73
2024-03-08T10:46:57.473Z,14.25
2024-03-08T10:49:31.121Z,14.32
2024-03-08T10:52:00.184Z,14.80
2024-03-08T10:54:27.651Z,15.15
2024-03-08T10:56:56.000Z,15.13
2024-03-08T10:59:23.692Z,14.77
2024-03-08T11:01:50.755Z,14.48
2024-03-08T11:04:20.790Z,15.65
2024-03-08T11:06:48.272Z,15.25
2024-03-08T11:09:34.058Z,14.60
2024-03-08T11:12:20.000Z,15.30
2024-03-08T11:14:50.188Z,14.07
2024-03-08T11:17:21.473Z,15.43
2024-03-08T11:19:53.343Z,12.88
2024-03-08T11:22:28.406Z,14.35
2024-03-08T11:25:00.203Z,14.60
2024-03-08T11:28:07.664Z,13.77
2024-03-08T11:30:34.232Z,13.82
2024-03-08T11:33:04.480Z,13.75
2024-03-08T11:35:31.067Z,13.30
2024-03-08T11:38:03.137Z,13.48
2024-03-08T11:40:30.261Z,13.88
2024-03-08T11:42:57.184Z,13.77
2024-03-08T11:45:23.806Z,12.32
2024-03-08T11:47:51.295Z,13.82
2024-03-08T11:50:22.118Z,13.27
2024-03-08T11:52:49.643Z,13.63
2024-03-08T11:55:16.295Z,12.82
2024-03-08T11:57:43.981Z,12.70
2024-03-08T12:00:27.687Z,13.30
2024-03-08T12:03:05.647Z,14.13
2024-03-08T12:05:34.708Z,12.57
2024-03-08T12:08:03.212Z,12.57
2024-03-08T12:10:30.348Z,13.38
2024-03-08T12:13:00.693Z,13.32
2024-03-08T12:15:28.909Z,12.82
2024-03-08T12:17:57.179Z,13.88
2024-03-08T12:22:54.372Z,11.68
2024-03-08T12:25:21.643Z,10.90
2024-03-08T12:27:48.493Z,13.63
2024-03-08T12:30:19.768Z,13.48
2024-03-08T12:32:54.169Z,12.80
2024-03-08T12:35:23.396Z,12.93
2024-03-08T12:37:52.558Z,12.32
2024-03-08T12:40:20.128Z,13.13
2024-03-08T12:42:48.407Z,13.07
2024-03-08T12:45:15.636Z,12.60
2024-03-08T12:47:43.088Z,13.25
2024-03-08T12:50:11.796Z,12.35
2024-03-08T12:52:38.339Z,12.65
2024-03-08T12:55:07.840Z,13.98
2024-03-08T12:57:36.171Z,12.90
2024-03-08T13:00:04.729Z,13.55
2024-03-08T13:02:35.174Z,13.98
2024-03-08T13:05:02.412Z,13.80
2024-03-08T13:07:29.126Z,13.23
2024-03-08T13:09:56.496Z,13.40
2024-03-08T13:12:24.052Z,13.65
2024-03-08T13:14:51.421Z,13.43
2024-03-08T13:17:19.409Z,13.43
2024-03-08T13:19:46.240Z,14.23
2024-03-08T13:22:17.557Z,13.50
2024-03-08T13:24:46.320Z,15.15
2024-03-08T13:27:23.226Z,13.38
2024-03-08T13:29:50.262Z,13.13
2024-03-08T13:32:17.862Z,13.25
2024-03-08T13:34:46.316Z,13.18
2024-03-08T13:37:12.951Z,13.60
2024-03-08T13:39:42.272Z,13.10
2024-03-08T13:42:10.989Z,13.30
2024-03-08T13:44:38.034Z,13.88
2024-03-08T13:47:06.015Z,12.85
2024-03-08T13:49:33.115Z,12.07
2024-03-08T13:52:02.719Z,12.70
2024-03-08T13:54:31.806Z,13.40
2024-03-08T13:57:01.682Z,13.55
2024-03-08T13:59:33.961Z,13.27
2024-03-08T14:02:03.000Z,14.23
2024-03-08T14:04:30.161Z,12.90
2024-03-08T14:07:02.399Z,14.25
2024-03-08T14:09:30.111Z,13.48
2024-03-08T14:11:56.831Z,12.88
2024-03-08T14:14:26.814Z,13.35
2024-03-08T14:16:59.028Z,13.52
2024-03-08T14:19:25.663Z,13.90
2024-03-08T14:21:54.395Z,13.88
2024-03-08T14:24:21.222Z,14.25
2024-03-08T14:26:49.975Z,12.68
2024-03-08T14:29:16.693Z,14.55
2024-03-08T14:31:44.348Z,13.90
2024-03-08T14:34:11.164Z,13.98
2024-03-08T14:36:39.128Z,13.82
2024-03-08T14:39:05.717Z,14.38
2024-03-08T14:41:32.411Z,12.82
2024-03-08T14:43:58.990Z,14.02
2024-03-08T14:46:25.737Z,13.70
2024-03-08T14:48:55.127Z,13.48
2024-03-08T14:51:27.614Z,13.13
2024-03-08T14:53:55.772Z,13.80
2024-03-08T14:56:23.981Z,14.13
2024-03-08T14:58:50.751Z,13.60
2024-03-08T15:01:17.472Z,13.25
2024-03-08T15:03:44.090Z,13.45
2024-03-08T15:06:11.178Z,13.40
2024-03-08T15:08:38.710Z,13.93
2024-03-08T15:11:06.985Z,13.63
2024-03-08T15:16:09.957Z,12.13
2024-03-08T15:18:37.197Z,13.07
2024-03-08T15:21:09.973Z,13.20
2024-03-08T15:23:37.291Z,13.48
2024-03-08T15:26:08.582Z,13.05
2024-03-08T15:28:38.407Z,13.80
2024-03-08T15:31:07.125Z,13.57
2024-03-08T15:33:45.906Z,13.93
2024-03-08T15:36:15.239Z,13.50
2024-03-08T15:38:44.521Z,12.98
2024-03-08T15:41:11.691Z,13.85
2024-03-08T15:43:38.768Z,13.00
2024-03-08T15:46:05.526Z,13.95
2024-03-08T15:48:33.953Z,14.13
2024-03-08T15:53:31.406Z,12.50
2024-03-08T15:56:01.151Z,13.27
2024-03-08T15:58:27.800Z,13.35
2024-03-08T16:00:54.466Z,12.40
2024-03-08T16:03:21.447Z,12.10
2024-03-08T16:05:49.581Z,11.63
2024-03-08T16:08:21.327Z,12.38
2024-03-08T16:10:57.578Z,12.98
2024-03-08T16:13:26.254Z,12.23
2024-03-08T16:15:55.902Z,12.70
2024-03-08T16:18:24.451Z,11.90
2024-03-08T16:20:52.006Z,12.00
2024-03-08T16:23:19.036Z,10.98
2024-03-08T16:25:46.087Z,12.20
2024-03-08T16:28:14.249Z,12.35
2024-03-08T16:30:50.131Z,11.40
2024-03-08T16:33:17.688Z,11.07
2024-03-08T16:35:46.145Z,11.85
2024-03-08T16:38:16.938Z,11.90
2024-03-08T16:40:44.944Z,12.88
2024-03-08T16:43:15.930Z,12.60
2024-03-08T16:45:54.185Z,12.70
2024-03-08T16:48:24.173Z,12.00
2024-03-08T16:50:51.135Z,14.60
2024-03-08T16:53:19.400Z,12.75
2024-03-08T16:58:16.041Z,11.25
2024-03-08T17:00:43.648Z,11.68
2024-03-08T17:03:13.564Z,11.75
2024-03-08T17:05:45.783Z,12.57
2024-03-08T17:08:12.973Z,13.02
2024-03-08T17:10:42.231Z,12.55
2024-03-08T17:13:09.421Z,13.20
2024-03-08T17:15:37.170Z,13.18
2024-03-08T17:18:07.385Z,12.55
2024-03-08T17:20:37.835Z,13.82
2024-03-08T17:23:09.416Z,12.95
2024-03-08T17:25:41.633Z,12.68
2024-03-08T17:28:09.873Z,13.02
2024-03-08T17:30:39.454Z,12.80
2024-03-08T17:33:15.995Z,12.63
2024-03-08T17:35:43.677Z,13.85
2024-03-08T17:38:11.259Z,12.40
2024-03-08T17:40:39.806Z,11.70
2024-03-08T17:43:12.488Z,12.10
2024-03-08T17:45:41.923Z,12.88
2024-03-08T17:48:13.993Z,12.75
2024-03-08T17:50:41.489Z,12.80
2024-03-08T17:53:09.146Z,13.20
2024-03-08T17:55:41.357Z,12.73
2024-03-08T17:58:09.034Z,12.52
2024-03-08T18:00:38.971Z,12.95
2024-03-08T18:03:06.762Z,13.02
2024-03-08T18:05:33.767Z,12.73
2024-03-08T18:08:02.601Z,12.10
2024-03-08T18:10:31.351Z,13.38
2024-03-08T18:13:17.046Z,12.70
2024-03-08T18:15:46.928Z,12.45
2024-03-08T18:18:13.795Z,12.43
2024-03-08T18:20:50.160Z,13.23
2024-03-08T18:23:18.583Z,13.15
2024-03-08T18:25:46.012Z,13.13
2024-03-08T18:28:13.916Z,13.18
2024-03-08T18:30:42.704Z,12.27
2024-03-08T18:33:13.092Z,13.43
2024-03-08T18:35:39.945Z,13.95
2024-03-08T18:38:08.928Z,13.02
2024-03-08T18:40:36.095Z,13.43
2024-03-08T18:43:02.903Z,13.95
2024-03-08T18:45:29.573Z,13.43
2024-03-08T18:47:59.549Z,13.80
2024-03-08T18:50:29.978Z,13.07
2024-03-08T18:52:59.313Z,13.45
2024-03-08T18:55:29.782Z,14.02
2024-03-08T18:58:02.410Z,12.70
2024-03-08T19:00:37.788Z,14.02
2024-03-08T19:03:08.828Z,13.25
2024-03-08T19:05:35.635Z,12.93
2024-03-08T19:08:07.926Z,13.70
2024-03-08T19:10:35.989Z,13.13
2024-03-08T19:13:03.532Z,13.00
2024-03-08T19:15:33.772Z,13.25
2024-03-08T19:18:01.988Z,12.73
2024-03-08T19:20:34.672Z,13.85
2024-03-08T19:23:01.496Z,13.77
2024-03-08T19:25:35.543Z,13.20
2024-03-08T19:28:07.353Z,13.05
2024-03-08T19:30:37.549Z,13.65
2024-03-08T19:33:08.939Z,14.55
2024-03-08T19:35:36.877Z,14.18
2024-03-08T19:38:04.495Z,12.82
2024-03-08T19:40:36.187Z,13.65
2024-03-08T19:43:07.015Z,13.25
2024-03-08T19:45:34.202Z,13.63
2024-03-08T19:48:04.377Z,13.57
2024-03-08T19:50:33.673Z,13.27
2024-03-08T19:53:05.296Z,13.23
2024-03-08T19:55:36.122Z,13.65
2024-03-08T19:58:04.474Z,14.23
2024-03-08T20:00:32.919Z,14.43
2024-03-08T20:03:01.244Z,13.05
2024-03-08T20:05:32.546Z,13.32
2024-03-08T20:08:05.345Z,13.73
2024-03-08T20:10:33.364Z,13.95
2024-03-08T20:13:00.078Z,13.20
2024-03-08T20:15:27.016Z,14.07
2024-03-08T20:17:55.250Z,13.75
2024-03-08T20:20:23.146Z,13.13
2024-03-08T20:22:52.143Z,14.05
2024-03-08T20:25:23.549Z,14.02
2024-03-08T20:27:52.884Z,15.07
2024-03-08T20:30:25.362Z,14.00
2024-03-08T20:32:58.995Z,13.98
2024-03-08T20:35:27.390Z,14.13
2024-03-08T20:38:00.069Z,13.23
2024-03-08T20:40:38.478Z,14.13
2024-03-08T20:43:14.463Z,13.88
2024-03-08T20:45:41.055Z,13.48
2024-03-08T20:48:08.019Z,14.10
2024-03-08T20:50:38.979Z,12.95
2024-03-08T20:53:11.286Z,14.05
2024-03-08T20:55:45.581Z,13.13
2024-03-08T20:58:17.540Z,13.55
2024-03-08T21:00:49.581Z,13.60
2024-03-08T21:03:19.782Z,14.40
2024-03-08T21:05:51.779Z,14.05
2024-03-08T21:08:28.928Z,13.15
2024-03-08T21:10:56.397Z,14.45
2024-03-08T21:13:27.951Z,13.85
2024-03-08T21:15:55.123Z,13.70
2024-03-08T21:18:22.668Z,13.93
2024-03-08T21:20:50.154Z,13.98
2024-03-08T21:23:16.810Z,14.40
2024-03-08T21:25:44.166Z,14.65
2024-03-08T21:28:12.341Z,13.95
2024-03-08T21:30:41.921Z,14.40
2024-03-08T21:33:12.377Z,15.38
2024-03-08T21:35:40.061Z,16.05
2024-03-08T21:38:08.036Z,15.43
2024-03-08T21:40:37.413Z,15.32
2024-03-08T21:43:04.833Z,14.68
2024-03-08T21:45:32.552Z,14.00
2024-03-08T21:48:04.363Z,14.27
2024-03-08T21:50:32.258Z,15.13
2024-03-08T21:53:01.339Z,13.45
2024-03-08T21:55:28.903Z,14.25
2024-03-08T21:57:55.722Z,14.20
2024-03-08T22:00:25.037Z,14.48
2024-03-08T22:02:55.134Z,14.32
2024-03-08T22:05:24.446Z,14.80
2024-03-08T22:07:52.010Z,15.05
2024-03-08T22:10:27.892Z,14.50
2024-03-08T22:12:56.719Z,14.60
2024-03-08T22:15:24.776Z,14.38
2024-03-08T22:17:57.483Z,14.45
2024-03-08T22:20:33.890Z,14.18
2024-03-08T22:23:03.031Z,13.85
2024-03-08T22:25:31.481Z,14.18
2024-03-08T22:27:58.564Z,13.23
2024-03-08T22:30:25.354Z,14.48
2024-03-08T22:32:55.912Z,14.40
2024-03-08T22:35:24.927Z,14.13
2024-03-08T22:37:52.434Z,14.98
2024-03-08T22:40:24.603Z,14.75
2024-03-08T22:42:52.671Z,13.98
2024-03-08T22:45:19.511Z,14.20
2024-03-08T22:47:47.567Z,15.02
2024-03-08T22:50:16.281Z,14.88
2024-03-08T22:52:49.056Z,15.00
2024-03-08T22:55:22.669Z,14.20
2024-03-08T22:57:50.506Z,14.68
2024-03-08T23:00:38.065Z,14.50
2024-03-08T23:05:31.269Z,13.32
2024-03-08T23:08:01.846Z,14.15
2024-03-08T23:10:29.285Z,13.90
2024-03-08T23:12:57.530Z,14.25
2024-03-08T23:15:25.914Z,15.20
2024-03-08T23:17:53.397Z,15.27
2024-03-08T23:20:21.706Z,15.20
2024-03-08T23:22:53.574Z,14.30
2024-03-08T23:25:20.988Z,15.35
2024-03-08T23:27:52.361Z,14.77
2024-03-08T23:30:21.487Z,15.70
2024-03-08T23:32:48.192Z,14.40
2024-03-08T23:35:15.196Z,14.57
2024-03-08T23:37:49.265Z,15.23
2024-03-08T23:40:24.204Z,15.80
2024-03-08T23:42:57.056Z,15.18
2024-03-08T23:45:23.944Z,15.43
2024-03-08T23:47:53.979Z,15.63
2024-03-08T23:50:23.832Z,15.45
2024-03-08T23:52:53.656Z,15.38
2024-03-08T23:55:30.612Z,15.88
2024-03-08T23:57:59.706Z,15.98
